Time;durP1;ratioP1;P1;durP2;ratioP2;P2;SDS_P1;SDS_P2;PMS_P1;PMS_P2;Temp;Humidity;BMP_temperature;BMP_pressure;BME280_temperature;BME280_humidity;BME280_pressure;Samples;Min_cycle;Max_cycle;Signal;HPM_P1;HPM_P2
2024/04/03 04:43:41;;;;;;;1.30;1.00;;;;;;;9.30;82.25;99170.96;111655;1234;22422;-53
2024/04/03 04:46:08;;;;;;;1.60;0.90;;;;;;;9.36;81.67;99171.05;113086;1237;22351;-53
2024/04/03 04:48:35;;;;;;;1.10;0.90;;;;;;;9.42;81.33;99181.59;113084;1246;23547;-53
2024/04/03 04:51:02;;;;;;;1.00;0.70;;;;;;;9.49;81.04;99181.68;113056;1248;22375;-47
2024/04/03 04:53:29;;;;;;;1.30;0.80;;;;;;;9.56;80.52;99184.20;112955;1237;136116;-53
2024/04/03 04:56:00;;;;;;;2.50;0.70;;;;;;;9.63;80.36;99192.11;113105;1234;23124;-45
2024/04/03 04:58:27;;;;;;;2.90;0.60;;;;;;;9.69;79.55;99189.23;113132;1247;23291;-45
2024/04/03 05:01:00;;;;;;;1.50;0.80;;;;;;;9.75;78.90;99197.51;112333;1237;25936;-44
2024/04/03 05:03:27;;;;;;;2.40;0.90;;;;;;;9.82;78.83;99187.48;111594;1236;22551;-54
2024/04/03 05:05:55;;;;;;;1.20;1.00;;;;;;;9.89;78.78;99193.48;111850;1246;22252;-54
2024/04/03 05:08:22;;;;;;;0.70;0.50;;;;;;;9.97;78.37;99190.23;112817;1240;22407;-44
2024/04/03 05:10:58;;;;;;;1.30;0.90;;;;;;;10.02;77.96;99215.59;113093;1247;22993;-45
2024/04/03 05:13:27;;;;;;;1.00;0.80;;;;;;;10.08;77.47;99206.60;112924;1239;22397;-46
2024/04/03 05:15:54;;;;;;;2.10;1.10;;;;;;;10.13;76.94;99208.79;112961;1245;22379;-46
2024/04/03 05:18:22;;;;;;;1.50;0.90;;;;;;;10.18;76.96;99210.11;112663;1247;22471;-45
2024/04/03 05:20:52;;;;;;;1.30;0.80;;;;;;;10.24;76.41;99213.36;112027;1247;22259;-44
2024/04/03 05:23:25;;;;;;;1.90;0.60;;;;;;;10.30;76.00;99227.39;112181;1248;22252;-52
2024/04/03 05:25:57;;;;;;;2.90;1.00;;;;;;;10.34;75.71;99219.65;112600;1247;23009;-55
2024/04/03 05:28:26;;;;;;;2.10;0.90;;;;;;;10.42;75.81;99215.00;112445;1247;22830;-46
2024/04/03 05:31:17;;;;;;;1.60;0.90;;;;;;;10.50;75.24;99223.41;112490;1240;23227;-45
2024/04/03 05:34:34;;;;;;;2.70;0.90;;;;;;;10.61;74.83;99219.73;112544;1247;22992;-57
2024/04/03 05:46:15;;;;;;;4.80;1.10;;;;;;;10.88;72.99;99220.46;111869;1247;22491;-53
2024/04/03 05:48:55;;;;;;;1.30;0.90;;;;;;;10.97;72.82;99230.78;112637;1247;22515;-52
2024/04/03 05:51:38;;;;;;;3.20;1.10;;;;;;;11.04;72.25;99236.58;111687;1247;23120;-44
2024/04/03 05:54:11;;;;;;;1.70;0.70;;;;;;;11.09;71.35;99250.98;112590;1247;23239;-54
2024/04/03 05:56:38;;;;;;;0.70;0.60;;;;;;;11.11;71.49;99235.41;112484;1247;22530;-58
2024/04/03 05:59:06;;;;;;;1.70;0.90;;;;;;;11.15;71.23;99237.08;112389;1247;22438;-53
2024/04/03 06:01:41;;;;;;;1.90;0.80;;;;;;;11.20;70.91;99238.02;111691;1247;22492;-57
2024/04/03 06:04:10;;;;;;;0.60;0.60;;;;;;;11.27;70.84;99235.62;112066;1247;22510;-46
2024/04/03 06:06:39;;;;;;;2.30;1.30;;;;;;;11.36;70.63;99242.07;112332;1247;23427;-46
2024/04/03 06:09:07;;;;;;;1.70;0.70;;;;;;;11.47;70.49;99235.91;112036;1247;22647;-54
2024/04/03 06:11:35;;;;;;;0.70;0.70;;;;;;;11.59;69.89;99232.18;112967;1247;23030;-48
2024/04/03 06:14:18;;;;;;;;;;;;;;;11.70;69.38;99235.25;112240;1247;22565;-57
2024/04/03 06:16:55;;;;;;;2.70;0.80;;;;;;;11.77;68.80;99230.05;112172;1247;22921;-48
2024/04/03 06:24:06;;;;;;;4.60;1.70;;;;;;;12.00;68.46;99236.55;112549;1247;22496;-46
2024/04/03 06:27:21;;;;;;;1.30;0.60;;;;;;;12.09;67.41;99244.04;112015;1247;22515;-54
2024/04/03 06:30:34;;;;;;;1.60;0.90;;;;;;;12.21;66.91;99256.52;112682;1247;23337;-46
2024/04/03 06:33:26;;;;;;;5.50;1.00;;;;;;;12.27;66.08;99254.63;112800;1247;22483;-45
2024/04/03 06:36:09;;;;;;;4.20;1.20;;;;;;;12.31;65.68;99250.70;112648;1243;22424;-46
2024/04/03 06:38:43;;;;;;;1.20;0.60;;;;;;;12.38;66.16;99253.17;112040;1247;23021;-55
2024/04/03 06:41:36;;;;;;;1.60;0.90;;;;;;;12.48;65.82;99251.49;111548;1248;23191;-47
2024/04/03 06:44:22;;;;;;;1.30;0.70;;;;;;;12.59;64.79;99245.65;112432;1242;22838;-45
2024/04/03 06:47:07;;;;;;;2.10;0.80;;;;;;;12.68;65.22;99252.95;112865;1247;22544;-45
2024/04/03 06:49:39;;;;;;;1.80;0.90;;;;;;;12.80;64.76;99253.34;112646;1248;22759;-47
2024/04/03 06:52:06;;;;;;;1.70;0.70;;;;;;;12.92;64.14;99251.11;112690;1247;23098;-45
2024/04/03 06:54:34;;;;;;;2.50;1.00;;;;;;;13.02;63.79;99247.17;112815;1247;22425;-54
2024/04/03 06:57:03;;;;;;;1.50;1.00;;;;;;;13.13;63.71;99246.53;112273;1247;22516;-55
2024/04/03 06:59:31;;;;;;;1.50;0.90;;;;;;;13.24;62.70;99246.41;112377;1248;22300;-46
2024/04/03 07:01:59;;;;;;;2.60;1.00;;;;;;;13.31;61.83;99252.73;112623;1247;22604;-47
2024/04/03 07:04:29;;;;;;;2.40;1.30;;;;;;;13.36;61.27;99250.15;111671;1247;24370;-57
2024/04/03 07:06:56;;;;;;;2.40;1.00;;;;;;;13.42;60.90;99261.70;112107;1247;23178;-56
2024/04/03 07:09:30;;;;;;;4.70;1.10;;;;;;;13.51;60.58;99262.48;112199;1247;22542;-47
2024/04/03 07:12:19;;;;;;;4.80;0.80;;;;;;;13.62;59.63;99263.95;111951;1247;23333;-46
2024/04/03 07:14:49;;;;;;;3.50;0.70;;;;;;;13.67;58.93;99273.94;112586;1247;22498;-57
2024/04/03 07:17:16;;;;;;;2.70;0.80;;;;;;;13.70;58.67;99272.80;112808;1247;22872;-47
2024/04/03 07:19:44;;;;;;;3.00;0.90;;;;;;;13.75;58.66;99254.27;112679;1248;22605;-55
2024/04/03 07:22:12;;;;;;;1.50;0.90;;;;;;;13.86;58.20;99258.15;112562;1247;22525;-56
2024/04/03 07:24:39;;;;;;;3.40;0.90;;;;;;;13.94;57.82;99255.45;112783;1247;22373;-45
2024/04/03 07:27:27;;;;;;;8.80;0.90;;;;;;;14.02;57.32;99247.52;112310;1247;22534;-46
2024/04/03 07:30:28;;;;;;;3.90;0.80;;;;;;;14.10;56.54;99272.33;112422;1247;22317;-56
2024/04/03 07:33:31;;;;;;;3.20;0.70;;;;;;;14.10;55.63;99266.02;112588;1248;22428;-46
2024/04/03 07:36:10;;;;;;;2.70;0.90;;;;;;;14.09;55.67;99258.52;112587;1248;22480;-55
2024/04/03 07:38:43;;;;;;;2.00;0.90;;;;;;;14.12;55.73;99248.06;112826;1248;22446;-47
2024/04/03 07:41:10;;;;;;;2.10;0.80;;;;;;;14.22;56.67;99237.23;112773;1247;23037;-47
2024/04/03 07:43:37;;;;;;;5.40;0.90;;;;;;;14.35;55.90;99243.66;112737;1247;22319;-56
2024/04/03 07:46:14;;;;;;;3.30;0.70;;;;;;;14.46;54.68;99251.75;111952;1248;22517;-47
2024/04/03 07:48:42;;;;;;;8.30;1.40;;;;;;;14.53;54.12;99254.67;112192;1247;22829;-58
2024/04/03 07:51:19;;;;;;;4.00;0.90;;;;;;;14.56;53.19;99269.33;112305;1248;22422;-57
2024/04/03 07:53:46;;;;;;;2.30;0.90;;;;;;;14.52;52.52;99264.20;112533;1248;22494;-58
2024/04/03 07:56:13;;;;;;;1.90;0.90;;;;;;;14.48;53.58;99254.86;112518;1248;24489;-56
2024/04/03 07:58:41;;;;;;;2.50;0.80;;;;;;;14.54;53.85;99262.73;112705;1248;22499;-56
2024/04/03 08:01:08;;;;;;;3.00;0.70;;;;;;;14.63;53.09;99272.27;112551;1247;23048;-56
2024/04/03 08:03:37;;;;;;;3.50;0.90;;;;;;;14.69;52.79;99267.33;112372;1248;22501;-46
2024/04/03 08:06:10;;;;;;;2.10;1.10;;;;;;;14.74;52.97;99267.15;112671;1248;22498;-59
2024/04/03 08:08:48;;;;;;;2.10;0.70;;;;;;;14.84;52.77;99277.71;112423;1247;22415;-58
2024/04/03 08:11:15;;;;;;;1.60;0.90;;;;;;;14.93;52.56;99269.87;112746;1247;22494;-49
2024/04/03 08:13:42;;;;;;;1.50;0.70;;;;;;;15.03;51.44;99268.46;112531;1248;22417;-58
2024/04/03 08:16:15;;;;;;;7.40;0.90;;;;;;;15.10;50.76;99264.53;112641;1247;23000;-47
2024/04/03 08:18:44;;;;;;;7.70;0.80;;;;;;;15.18;51.49;99278.15;112596;1241;22445;-56
2024/04/03 08:21:11;;;;;;;7.70;0.90;;;;;;;15.25;51.26;99263.48;112728;1247;22554;-48
2024/04/03 08:23:58;;;;;;;1.00;0.70;;;;;;;15.32;50.66;99277.65;112641;1248;23432;-48
2024/04/03 08:26:56;;;;;;;7.80;0.90;;;;;;;15.37;50.89;99269.39;112591;1247;22348;-47
2024/04/03 08:29:43;;;;;;;1.90;0.80;;;;;;;15.43;50.07;99271.62;112515;1248;23212;-47
2024/04/03 08:32:40;;;;;;;1.40;0.60;;;;;;;15.50;48.30;99288.60;112511;1247;22376;-47
2024/04/03 08:36:34;;;;;;;4.30;0.60;;;;;;;15.55;48.75;99270.52;112648;1247;23554;-57
2024/04/03 08:39:50;;;;;;;5.30;0.70;;;;;;;15.66;47.93;99278.38;112688;1247;23678;-57
2024/04/03 08:42:50;;;;;;;1.10;0.80;;;;;;;15.73;47.76;99273.56;112098;1247;23255;-57
2024/04/03 08:45:40;;;;;;;2.10;0.70;;;;;;;15.77;47.78;99273.39;112168;1248;22529;-57
2024/04/03 08:48:08;;;;;;;1.80;0.60;;;;;;;15.83;47.84;99279.70;111025;1248;22545;-48
2024/04/03 08:50:37;;;;;;;1.50;0.50;;;;;;;15.95;46.99;99294.52;112840;1247;22899;-55
2024/04/03 08:53:11;;;;;;;2.70;1.00;;;;;;;16.03;45.34;99290.54;112535;1247;23295;-47
2024/04/03 08:55:44;;;;;;;;;;;;;;;16.06;44.39;99283.54;112728;1247;22830;-48
2024/04/03 09:02:18;;;;;;;1.60;0.60;;;;;;;16.18;45.49;99291.89;112570;1247;22813;-56
2024/04/03 09:05:15;;;;;;;3.80;0.60;;;;;;;16.15;45.66;99287.44;112653;1248;22378;-46
2024/04/03 09:09:10;;;;;;;0.90;0.70;;;;;;;16.09;45.37;99287.30;112724;1248;22536;-47
2024/04/03 09:14:45;;;;;;;1.40;0.80;;;;;;;16.28;44.18;99287.61;112790;1247;22762;-58
2024/04/03 09:18:16;;;;;;;0.60;0.40;;;;;;;16.38;43.56;99283.17;112840;1247;22508;-58
2024/04/03 09:24:52;;;;;;;0.60;0.60;;;;;;;16.33;41.36;99282.84;112734;1248;22348;-57
2024/04/03 09:28:08;;;;;;;0.70;0.60;;;;;;;16.25;41.29;99275.79;112888;1247;22417;-58
2024/04/03 09:31:15;;;;;;;1.30;0.50;;;;;;;16.20;41.78;99275.45;112786;1248;25547;-48
2024/04/03 09:33:55;;;;;;;4.50;1.80;;;;;;;16.21;42.06;99281.73;112882;1247;23637;-47
2024/04/03 09:36:46;;;;;;;3.00;0.60;;;;;;;16.29;42.96;99277.89;112282;1247;22485;-58
2024/04/03 09:39:26;;;;;;;1.20;0.60;;;;;;;16.32;41.66;99274.44;112081;1248;22495;-57
2024/04/03 09:42:06;;;;;;;1.30;0.60;;;;;;;16.32;42.18;99266.18;112250;1248;23361;-46
2024/04/03 09:45:54;;;;;;;0.80;0.50;;;;;;;16.45;41.63;99277.44;112171;1248;22849;-58
2024/04/03 09:48:59;;;;;;;4.40;0.90;;;;;;;16.58;39.76;99278.52;112667;1248;22668;-58
2024/04/03 09:51:26;;;;;;;1.20;0.50;;;;;;;16.52;40.45;99260.80;112573;1248;22453;-48
2024/04/03 09:53:53;;;;;;;11.80;1.10;;;;;;;16.59;41.38;99261.41;112825;1248;22440;-48
2024/04/03 09:56:27;;;;;;;10.60;2.30;;;;;;;16.77;40.06;99282.50;112786;1248;22406;-48
2024/04/03 09:59:01;;;;;;;3.20;0.90;;;;;;;16.91;39.12;99283.33;112847;1248;22351;-48
2024/04/03 10:01:31;;;;;;;3.40;0.50;;;;;;;16.91;39.40;99293.38;112876;1247;22478;-58
2024/04/03 10:04:04;;;;;;;0.80;0.40;;;;;;;16.87;39.30;99280.54;112898;1247;23197;-48
2024/04/03 10:06:39;;;;;;;0.60;0.50;;;;;;;16.85;39.07;99263.33;112686;1247;22520;-46
2024/04/03 10:09:21;;;;;;;1.60;0.50;;;;;;;16.96;39.26;99275.39;112666;1247;23576;-47
2024/04/03 10:11:51;;;;;;;1.50;0.70;;;;;;;17.09;39.10;99266.02;112846;1248;22390;-48
2024/04/03 10:14:28;;;;;;;1.30;0.60;;;;;;;17.18;38.95;99284.86;112847;1248;22383;-47
2024/04/03 10:16:55;;;;;;;2.10;0.70;;;;;;;17.12;39.45;99275.24;112673;1247;22258;-47
2024/04/03 10:19:22;;;;;;;1.80;0.40;;;;;;;16.98;39.20;99274.94;112578;1247;22743;-48
2024/04/03 10:21:49;;;;;;;1.50;0.60;;;;;;;16.96;38.74;99265.88;112857;1247;23387;-47
2024/04/03 10:24:19;;;;;;;1.50;0.70;;;;;;;17.01;39.10;99263.54;112868;1247;22366;-57
2024/04/03 10:26:47;;;;;;;1.60;0.70;;;;;;;17.24;39.44;99275.23;112086;1248;22522;-57
2024/04/03 10:29:15;;;;;;;1.30;0.70;;;;;;;17.66;39.17;99276.03;112501;1248;22642;-49
2024/04/03 10:31:46;;;;;;;2.20;0.40;;;;;;;17.95;37.79;99282.83;112192;1248;22226;-58
2024/04/03 10:34:19;;;;;;;2.30;0.60;;;;;;;18.33;36.99;99281.80;113013;1247;22344;-56
2024/04/03 10:36:47;;;;;;;1.10;0.50;;;;;;;18.72;36.41;99300.02;113019;1248;23136;-58
2024/04/03 10:39:14;;;;;;;0.60;0.40;;;;;;;18.91;35.17;99295.92;112259;1248;22536;-58
2024/04/03 10:41:42;;;;;;;9.10;1.00;;;;;;;18.78;34.67;99316.52;113028;1247;22795;-57
2024/04/03 10:44:15;;;;;;;7.60;0.70;;;;;;;18.39;35.35;99309.90;112844;1248;22522;-56
2024/04/03 10:46:44;;;;;;;1.20;0.50;;;;;;;17.98;36.04;99317.29;112728;1248;22519;-47
2024/04/03 10:49:11;;;;;;;2.80;0.60;;;;;;;17.66;36.78;99302.69;112956;1248;22432;-57
2024/04/03 10:51:39;;;;;;;1.00;0.60;;;;;;;17.64;36.79;99297.63;112253;1248;22439;-48
2024/04/03 10:54:09;;;;;;;2.70;0.80;;;;;;;17.50;35.95;99296.98;112291;1247;23160;-48
2024/04/03 10:56:37;;;;;;;1.10;0.40;;;;;;;17.64;35.52;99302.75;113004;1247;22404;-47
2024/04/03 10:59:04;;;;;;;4.10;0.60;;;;;;;18.14;35.78;99290.95;112690;1247;23036;-46
2024/04/03 11:01:33;;;;;;;3.70;0.60;;;;;;;18.88;34.71;99300.46;112847;1247;23138;-56
2024/04/03 11:04:03;;;;;;;1.80;0.50;;;;;;;19.34;32.91;99322.55;111913;1248;22426;-48
2024/04/03 11:06:31;;;;;;;2.60;0.80;;;;;;;19.36;32.94;99316.61;112839;1247;22465;-48
2024/04/03 11:08:58;;;;;;;0.90;0.40;;;;;;;19.11;33.26;99323.57;112731;1247;23318;-48
2024/04/03 11:11:26;;;;;;;1.40;0.70;;;;;;;18.77;33.48;99351.01;112884;1248;22447;-57
2024/04/03 11:13:54;;;;;;;1.30;0.60;;;;;;;18.42;33.78;99340.66;112908;1247;22835;-46
2024/04/03 11:16:22;;;;;;;2.30;0.30;;;;;;;18.32;33.94;99335.30;113036;1248;23028;-57
2024/04/03 11:18:50;;;;;;;0.80;0.40;;;;;;;18.42;34.73;99329.18;112958;1247;22374;-47
2024/04/03 11:21:17;;;;;;;2.80;1.40;;;;;;;18.51;34.04;99346.42;112890;1248;22424;-47
2024/04/03 11:23:44;;;;;;;10.20;5.70;;;;;;;18.36;33.54;99353.13;112904;1247;22389;-48
2024/04/03 11:26:10;;;;;;;39.10;16.80;;;;;;;18.10;34.49;99343.22;112853;1248;22426;-48
2024/04/03 11:28:39;;;;;;;5.80;2.90;;;;;;;17.86;34.96;99350.46;112924;1248;23236;-56
2024/04/03 11:31:06;;;;;;;3.10;0.90;;;;;;;17.66;35.30;99347.42;112916;1246;22411;-57
2024/04/03 11:33:33;;;;;;;3.50;0.80;;;;;;;17.51;35.62;99342.97;112890;1247;22394;-57
2024/04/03 11:35:59;;;;;;;1.10;0.70;;;;;;;17.43;35.95;99343.88;112937;1248;22392;-48
2024/04/03 11:38:30;;;;;;;4.30;3.00;;;;;;;17.62;36.46;99345.34;113057;1247;22414;-47
2024/04/03 11:40:58;;;;;;;5.10;1.00;;;;;;;18.04;35.92;99335.04;112799;1248;22428;-56
2024/04/03 11:43:25;;;;;;;3.40;0.60;;;;;;;18.37;35.23;99348.83;113034;1247;22494;-47
2024/04/03 11:45:52;;;;;;;2.50;0.90;;;;;;;18.41;34.20;99347.06;113052;1248;22232;-47
2024/04/03 11:48:20;;;;;;;8.10;1.20;;;;;;;18.24;34.42;99361.27;113056;1248;22141;-57
2024/04/03 11:50:47;;;;;;;1.60;1.00;;;;;;;18.04;35.00;99356.52;112982;1248;23240;-48
2024/04/03 11:53:14;;;;;;;2.00;1.10;;;;;;;17.94;35.48;99344.45;112918;1247;22898;-48
2024/04/03 11:55:41;;;;;;;1.80;0.50;;;;;;;18.11;35.71;99348.30;112923;1248;22459;-57
2024/04/03 11:58:08;;;;;;;3.50;0.40;;;;;;;18.25;34.45;99338.79;112844;1247;22404;-56
2024/04/03 12:00:35;;;;;;;0.80;0.50;;;;;;;18.18;34.70;99345.15;112802;1247;23649;-57
2024/04/03 12:03:02;;;;;;;1.30;0.50;;;;;;;18.01;34.55;99348.18;112804;1248;22412;-47
2024/04/03 12:05:29;;;;;;;1.30;0.50;;;;;;;17.88;34.37;99356.90;112859;1247;22370;-57
2024/04/03 12:07:56;;;;;;;1.10;0.60;;;;;;;17.75;34.30;99346.86;112856;1248;22587;-56
2024/04/03 12:10:23;;;;;;;3.40;0.50;;;;;;;17.67;34.04;99350.22;112861;1248;22244;-58
2024/04/03 12:12:50;;;;;;;7.00;3.50;;;;;;;17.71;34.72;99348.98;112827;1247;22396;-57
2024/04/03 12:15:17;;;;;;;0.80;0.60;;;;;;;17.96;34.59;99339.94;112802;1247;23263;-57
2024/04/03 12:17:45;;;;;;;2.10;0.70;;;;;;;18.19;34.20;99339.95;112805;1247;23434;-57
2024/04/03 12:20:13;;;;;;;2.30;0.50;;;;;;;18.33;34.05;99337.21;112782;1247;22353;-47
2024/04/03 12:22:41;;;;;;;4.70;1.10;;;;;;;18.38;34.09;99360.82;112835;1248;22395;-49
2024/04/03 12:25:07;;;;;;;1.70;0.60;;;;;;;18.39;33.79;99352.81;112911;1247;22452;-58
2024/04/03 12:27:34;;;;;;;1.10;0.40;;;;;;;18.38;33.87;99341.56;112942;1247;22383;-58
2024/04/03 12:30:01;;;;;;;1.20;0.60;;;;;;;18.47;33.55;99341.13;112943;1248;22239;-58
2024/04/03 12:32:29;;;;;;;1.90;0.60;;;;;;;18.57;33.61;99344.70;112983;1247;22953;-57
2024/04/03 12:34:56;;;;;;;1.30;0.70;;;;;;;18.56;32.91;99352.02;113019;1248;22367;-56
2024/04/03 12:37:23;;;;;;;1.60;0.70;;;;;;;18.34;33.09;99349.88;113005;1248;22464;-57
2024/04/03 12:40:10;;;;;;;4.70;0.70;;;;;;;18.23;33.29;99351.09;113073;1247;23174;-56
2024/04/03 12:42:37;;;;;;;0.70;0.60;;;;;;;18.19;33.24;99369.45;113021;1247;23163;-58
2024/04/03 12:45:04;;;;;;;1.50;0.50;;;;;;;18.13;33.52;99346.06;112909;1247;22355;-57
2024/04/03 12:47:33;;;;;;;4.00;0.50;;;;;;;18.26;33.84;99349.71;112867;1248;22481;-59
2024/04/03 12:50:00;;;;;;;1.40;0.70;;;;;;;18.41;33.42;99349.92;112900;1248;22840;-57
2024/04/03 12:52:27;;;;;;;5.10;1.50;;;;;;;18.30;33.60;99355.48;112888;1247;23221;-57
2024/04/03 12:54:54;;;;;;;1.20;0.70;;;;;;;18.20;33.85;99340.12;112663;1247;22601;-57
2024/04/03 12:57:21;;;;;;;0.60;0.40;;;;;;;18.33;33.59;99356.77;113052;1247;22399;-50
2024/04/03 12:59:48;;;;;;;4.10;0.80;;;;;;;18.48;33.13;99341.79;113034;1247;22395;-56
2024/04/03 13:02:16;;;;;;;2.90;0.80;;;;;;;18.81;33.16;99338.66;113091;1240;22383;-58
2024/04/03 13:04:43;;;;;;;1.80;0.90;;;;;;;19.14;32.57;99338.44;111399;1248;25247;-49
2024/04/03 13:07:10;;;;;;;2.50;0.50;;;;;;;19.34;31.68;99355.77;112001;1247;22514;-47
2024/04/03 13:09:37;;;;;;;2.50;0.60;;;;;;;19.27;31.86;99340.75;111998;1248;23160;-56
2024/04/03 13:12:05;;;;;;;1.60;0.30;;;;;;;19.14;32.34;99336.09;112378;1248;22194;-49
2024/04/03 13:14:33;;;;;;;0.70;0.70;;;;;;;19.05;32.21;99340.77;113100;1248;23293;-57
2024/04/03 13:17:01;;;;;;;2.20;0.70;;;;;;;18.96;32.71;99345.88;112351;1248;22533;-48
2024/04/03 13:19:28;;;;;;;1.00;0.50;;;;;;;18.77;32.57;99348.36;112707;1248;22988;-59
2024/04/03 13:21:55;;;;;;;2.00;0.50;;;;;;;18.49;32.69;99338.05;111175;1248;22493;-48
2024/04/03 13:24:22;;;;;;;3.40;0.50;;;;;;;18.22;33.12;99345.30;112438;1248;22301;-58
2024/04/03 13:26:48;;;;;;;1.20;0.60;;;;;;;17.96;33.60;99346.50;111831;1247;23250;-59
2024/04/03 13:29:16;;;;;;;0.90;0.50;;;;;;;17.73;34.08;99346.27;113106;1247;22355;-57
2024/04/03 13:31:43;;;;;;;4.70;1.00;;;;;;;17.74;34.63;99346.92;113085;1248;22215;-57
2024/04/03 13:34:10;;;;;;;6.00;0.90;;;;;;;18.10;34.04;99346.89;113133;1247;22386;-58
2024/04/03 13:36:36;;;;;;;1.70;0.60;;;;;;;18.66;33.38;99352.04;112150;1247;24221;-58
2024/04/03 13:39:07;;;;;;;1.00;0.50;;;;;;;19.33;32.30;99342.94;111686;1247;23116;-57
2024/04/03 13:41:34;;;;;;;3.70;0.60;;;;;;;19.82;31.38;99333.86;111915;1248;22485;-48
2024/04/03 13:44:01;;;;;;;3.40;0.50;;;;;;;20.06;31.41;99343.03;111775;1248;23291;-48
2024/04/03 13:46:28;;;;;;;2.00;0.50;;;;;;;20.24;30.89;99351.97;111500;1248;23083;-49
2024/04/03 13:48:55;;;;;;;1.40;0.60;;;;;;;20.25;29.98;99371.40;111469;1247;22524;-49
2024/04/03 13:51:23;;;;;;;2.50;0.80;;;;;;;20.27;30.09;99354.66;113086;1247;23542;-49
2024/04/03 13:53:53;;;;;;;2.50;0.60;;;;;;;20.40;29.87;99352.51;113085;1248;22372;-47
2024/04/03 13:56:25;;;;;;;2.30;0.40;;;;;;;20.44;29.84;99345.16;113112;1247;22337;-47
2024/04/03 13:58:52;;;;;;;1.70;0.50;;;;;;;20.49;29.59;99355.57;113085;1247;22390;-48
2024/04/03 14:01:19;;;;;;;1.20;0.60;;;;;;;20.46;29.62;99350.95;113049;1247;22356;-57
2024/04/03 14:03:46;;;;;;;0.70;0.40;;;;;;;20.26;29.62;99347.45;112735;1247;22419;-47
2024/04/03 14:06:13;;;;;;;3.10;0.60;;;;;;;20.18;29.41;99347.65;112272;1248;23221;-56
2024/04/03 14:08:41;;;;;;;0.90;0.50;;;;;;;20.26;29.57;99352.02;112172;1247;22353;-49
2024/04/03 14:11:08;;;;;;;1.00;0.60;;;;;;;20.31;29.14;99353.02;113015;1248;22274;-58
2024/04/03 14:13:35;;;;;;;0.70;0.50;;;;;;;20.42;28.79;99360.20;113077;1248;22384;-59
2024/04/03 14:16:02;;;;;;;2.30;0.50;;;;;;;20.55;28.96;99341.77;112526;1247;26527;-58
2024/04/03 14:18:29;;;;;;;3.40;1.10;;;;;;;20.76;28.71;99352.28;112555;1247;23279;-47
2024/04/03 14:20:56;;;;;;;0.90;0.30;;;;;;;21.03;28.28;99369.73;111696;1247;22519;-56
2024/04/03 14:23:23;;;;;;;1.20;0.60;;;;;;;21.16;28.08;99348.70;113123;1248;22392;-47
2024/04/03 14:25:50;;;;;;;0.90;0.50;;;;;;;21.35;28.13;99356.72;113047;1247;22374;-46
